createdAt,value
2022-08-12T00:01:11.580Z,100682.23
2022-08-12T00:04:00.918Z,100681.09
2022-08-12T00:06:52.387Z,100680.78
2022-08-12T00:09:42.388Z,100673.88
2022-08-12T00:12:32.152Z,100688.63
2022-08-12T00:15:23.022Z,100682.34
2022-08-12T00:18:12.824Z,100678.34
2022-08-12T00:21:02.656Z,100678.09
2022-08-12T00:23:53.147Z,100673.12
2022-08-12T00:26:42.687Z,100673.12
2022-08-12T00:29:32.464Z,100673.44
2022-08-12T00:32:36.149Z,100666.63
2022-08-12T00:35:13.475Z,100668.56
2022-08-12T00:38:03.243Z,100670.66
2022-08-12T00:40:53.684Z,100665.69
2022-08-12T00:43:27.701Z,100675.80
2022-08-12T00:46:17.242Z,100671.55
2022-08-12T00:48:50.584Z,100679.62
2022-08-12T00:51:23.988Z,100673.55
2022-08-12T00:53:57.784Z,100674.51
2022-08-12T00:56:30.721Z,100675.58
2022-08-12T00:59:04.767Z,100676.64
2022-08-12T01:02:02.518Z,100672.16
2022-08-12T01:04:31.439Z,100667.80
2022-08-12T01:07:23.616Z,100670.77
2022-08-12T01:10:14.072Z,100674.39
2022-08-12T01:12:46.659Z,100665.69
2022-08-12T01:15:19.687Z,100678.97
2022-08-12T01:17:52.397Z,100681.39
2022-08-12T01:20:30.108Z,100681.63
2022-08-12T01:23:38.071Z,100673.86
2022-08-12T01:26:13.377Z,100682.13
2022-08-12T01:28:48.500Z,100686.81
2022-08-12T01:31:23.324Z,100681.70
2022-08-12T01:34:04.751Z,100689.67
2022-08-12T01:36:44.479Z,100683.42
2022-08-12T01:39:18.732Z,100681.59
2022-08-12T01:41:54.021Z,100693.29
2022-08-12T01:44:27.414Z,100689.77
2022-08-12T01:47:35.441Z,100684.36
2022-08-12T01:50:34.714Z,100683.52
2022-08-12T01:53:11.244Z,100685.13
2022-08-12T01:55:48.661Z,100686.18
2022-08-12T01:58:37.051Z,100686.28
2022-08-12T02:01:12.332Z,100689.14
2022-08-12T02:04:29.226Z,100694.55
2022-08-12T02:07:44.384Z,100693.39
2022-08-12T02:11:05.280Z,100694.34
2022-08-12T02:14:05.605Z,100697.10
2022-08-12T02:16:51.978Z,100693.58
2022-08-12T02:19:48.837Z,100692.55
2022-08-12T02:22:33.958Z,100694.78
2022-08-12T02:25:24.189Z,100699.80
2022-08-12T02:27:57.644Z,100698.84
2022-08-12T02:30:35.346Z,100703.09
2022-08-12T02:33:08.063Z,100703.81
2022-08-12T02:35:40.438Z,100702.45
2022-08-12T02:38:13.405Z,100705.64
2022-08-12T02:40:48.909Z,100707.89
2022-08-12T02:43:48.824Z,100708.31
2022-08-12T02:46:35.224Z,100710.54
2022-08-12T02:49:14.739Z,100710.13
2022-08-12T02:51:46.906Z,100707.89
2022-08-12T02:54:19.170Z,100698.53
2022-08-12T02:56:52.505Z,100699.16
2022-08-12T02:59:27.186Z,100705.80
2022-08-12T03:02:03.192Z,100699.20
2022-08-12T03:04:43.912Z,100698.74
2022-08-12T03:07:40.621Z,100703.64
2022-08-12T03:10:16.170Z,100704.89
2022-08-12T03:12:49.884Z,100710.41
2022-08-12T03:15:23.037Z,100699.95
2022-08-12T03:18:25.586Z,100702.91
2022-08-12T03:20:40.931Z,100698.09
2022-08-12T03:23:19.344Z,100689.53
2022-08-12T03:25:49.982Z,100696.23
2022-08-12T03:28:40.493Z,100696.62
2022-08-12T03:31:12.537Z,100704.06
2022-08-12T03:34:00.520Z,100697.22
2022-08-12T03:36:22.161Z,100689.29
2022-08-12T03:39:03.079Z,100692.34
2022-08-12T03:41:39.947Z,100693.33
2022-08-12T03:44:42.188Z,100686.69
2022-08-12T03:47:34.743Z,100686.95
2022-08-12T03:50:24.960Z,100682.64
2022-08-12T03:53:14.789Z,100691.72
2022-08-12T03:56:04.198Z,100691.76
2022-08-12T03:58:54.296Z,100693.81
2022-08-12T04:01:26.649Z,100694.22
2022-08-12T04:03:59.130Z,100689.13
2022-08-12T04:06:34.894Z,100688.55
2022-08-12T04:09:16.178Z,100687.08
2022-08-12T04:11:59.392Z,100695.33
2022-08-12T04:14:31.761Z,100691.80
2022-08-12T04:17:04.494Z,100695.33
2022-08-12T04:19:37.720Z,100690.34
2022-08-12T04:22:11.789Z,100692.39
2022-08-12T04:24:48.841Z,100693.47
2022-08-12T04:27:18.341Z,100687.41
2022-08-12T04:30:30.427Z,100692.97
2022-08-12T04:32:26.223Z,100695.00
2022-08-12T04:34:59.199Z,100688.90
2022-08-12T04:38:00.369Z,100685.61
2022-08-12T04:40:09.924Z,100692.73
2022-08-12T04:42:42.350Z,100690.27
2022-08-12T04:45:14.495Z,100681.34
2022-08-12T04:47:49.115Z,100683.94
2022-08-12T04:50:27.222Z,100692.67
2022-08-12T04:52:57.591Z,100688.22
2022-08-12T04:55:30.613Z,100687.71
2022-08-12T04:58:03.288Z,100685.06
2022-08-12T05:00:38.183Z,100676.39
2022-08-12T05:03:10.343Z,100676.29
2022-08-12T05:05:44.051Z,100673.53
2022-08-12T05:08:18.441Z,100676.02
2022-08-12T05:10:51.063Z,100682.38
2022-08-12T05:13:25.775Z,100683.27
2022-08-12T05:16:04.067Z,100677.78
2022-08-12T05:18:32.998Z,100678.80
2022-08-12T05:21:07.643Z,100669.07
2022-08-12T05:23:41.072Z,100681.52
2022-08-12T05:26:14.157Z,100675.33
2022-08-12T05:28:46.366Z,100672.97
2022-08-12T05:31:42.518Z,100678.47
2022-08-12T05:33:53.133Z,100676.21
2022-08-12T05:36:25.729Z,100672.95
2022-08-12T05:38:57.980Z,100673.27
2022-08-12T05:41:36.366Z,100683.27
2022-08-12T05:44:12.803Z,100679.72
2022-08-12T05:46:45.140Z,100673.49
2022-08-12T05:49:17.703Z,100669.39
2022-08-12T05:51:49.936Z,100679.70
2022-08-12T05:54:47.357Z,100668.26
2022-08-12T05:56:56.130Z,100668.23
2022-08-12T05:59:28.648Z,100632.66
2022-08-12T06:02:12.302Z,100669.16
2022-08-12T06:04:36.856Z,100668.97
2022-08-12T06:07:37.318Z,100668.22
2022-08-12T06:09:44.865Z,100668.19
2022-08-12T06:12:18.122Z,100678.47
2022-08-12T06:14:50.709Z,100661.19
2022-08-12T06:17:23.190Z,100669.91
2022-08-12T06:20:25.712Z,100667.34
2022-08-12T06:22:29.412Z,100660.94
2022-08-12T06:25:01.821Z,100663.25
2022-08-12T06:27:34.967Z,100659.47
2022-08-12T06:30:14.246Z,100654.86
2022-08-12T06:32:51.687Z,100653.32
2022-08-12T06:35:23.824Z,100655.02
2022-08-12T06:37:57.875Z,100655.20
2022-08-12T06:40:48.332Z,100654.80
2022-08-12T06:43:21.387Z,100653.32
2022-08-12T06:45:53.788Z,100647.20
2022-08-12T06:48:29.052Z,100646.80
2022-08-12T06:51:03.306Z,100652.17
2022-08-12T06:53:36.855Z,100664.65
2022-08-12T06:56:12.536Z,100658.54
2022-08-12T06:58:45.378Z,100652.09
2022-08-12T07:01:19.196Z,100655.89
2022-08-12T07:03:53.670Z,100650.66
2022-08-12T07:06:27.035Z,100651.23
2022-08-12T07:08:59.853Z,100658.56
2022-08-12T07:11:34.059Z,100656.08
2022-08-12T07:14:12.276Z,100650.72
2022-08-12T07:16:55.823Z,100649.37
2022-08-12T07:19:45.116Z,100657.45
2022-08-12T07:22:05.961Z,100655.23
2022-08-12T07:24:38.824Z,100650.66
2022-08-12T07:27:11.907Z,100659.05
2022-08-12T07:29:58.287Z,100658.88
2022-08-12T07:32:21.573Z,100656.48
2022-08-12T07:34:54.806Z,100658.67
2022-08-12T07:37:27.650Z,100658.64
2022-08-12T07:40:01.408Z,100660.99
2022-08-12T07:42:34.698Z,100657.56
2022-08-12T07:45:09.596Z,100660.48
2022-08-12T07:47:45.989Z,100657.09
2022-08-12T07:50:23.966Z,100662.33
2022-08-12T07:52:56.301Z,100661.63
2022-08-12T07:55:29.690Z,100654.55
2022-08-12T07:58:03.292Z,100657.09
2022-08-12T08:00:38.807Z,100659.38
2022-08-12T08:03:13.635Z,100653.79
2022-08-12T08:05:49.700Z,100656.48
2022-08-12T08:08:25.197Z,100659.53
2022-08-12T08:11:18.281Z,100665.08
2022-08-12T08:13:51.087Z,100659.84
2022-08-12T08:16:24.598Z,100655.78
2022-08-12T08:18:58.893Z,100656.33
2022-08-12T08:21:33.058Z,100658.00
2022-08-12T08:24:17.435Z,100656.77
2022-08-12T08:26:52.678Z,100645.70
2022-08-12T08:29:26.132Z,100650.23
2022-08-12T08:32:00.682Z,100649.57
2022-08-12T08:34:54.439Z,100642.81
2022-08-12T08:37:10.837Z,100646.17
2022-08-12T08:39:45.122Z,100647.19
2022-08-12T08:42:38.843Z,100644.84
2022-08-12T08:45:13.844Z,100645.39
2022-08-12T08:47:47.969Z,100647.80
2022-08-12T08:50:20.892Z,100645.39
2022-08-12T08:52:53.741Z,100651.35
2022-08-12T08:55:42.410Z,100638.16
2022-08-12T08:58:01.934Z,100634.48
2022-08-12T09:00:35.128Z,100632.48
2022-08-12T09:04:21.099Z,100637.05
2022-08-12T09:06:02.409Z,100639.11
2022-08-12T09:10:59.586Z,100628.45
2022-08-12T09:14:10.943Z,100624.93
2022-08-12T09:16:07.236Z,100631.36
2022-08-12T09:18:41.212Z,100623.94
2022-08-12T09:21:21.270Z,100621.80
2022-08-12T09:24:06.007Z,100620.63
2022-08-12T09:26:33.938Z,100630.08
2022-08-12T09:29:12.267Z,100622.33
2022-08-12T09:32:07.314Z,100613.95
2022-08-12T09:34:28.445Z,100621.52
2022-08-12T09:37:00.767Z,100616.98
2022-08-12T09:40:07.932Z,100612.77
2022-08-12T09:42:41.049Z,100613.42
2022-08-12T09:45:23.602Z,100616.45
2022-08-12T09:47:59.011Z,100622.38
2022-08-12T09:50:30.833Z,100613.09
2022-08-12T09:53:14.992Z,100609.55
2022-08-12T09:56:07.015Z,100601.12
2022-08-12T09:58:57.316Z,100600.78
2022-08-12T10:01:14.891Z,100591.99
2022-08-12T10:03:55.578Z,100597.22
2022-08-12T10:06:32.003Z,100598.58
2022-08-12T10:08:58.287Z,100596.20
2022-08-12T10:12:12.038Z,100600.95
2022-08-12T10:14:33.342Z,100591.52
2022-08-12T10:16:59.395Z,100583.09
2022-08-12T10:19:36.548Z,100580.72
2022-08-12T10:22:16.447Z,100583.74
2022-08-12T10:24:40.692Z,100576.13
2022-08-12T10:28:00.768Z,100567.86
2022-08-12T10:30:39.565Z,100576.80
2022-08-12T10:33:02.557Z,100569.04
2022-08-12T10:35:17.793Z,100564.81
2022-08-12T10:38:37.601Z,100561.24
2022-08-12T10:40:31.436Z,100562.77
2022-08-12T10:43:19.778Z,100559.22
2022-08-12T10:45:57.209Z,100563.23
2022-08-12T10:48:34.239Z,100559.68
2022-08-12T10:52:02.982Z,100550.55
2022-08-12T10:53:46.264Z,100549.90
2022-08-12T10:56:21.551Z,100548.53
2022-08-12T10:58:55.962Z,100554.92
2022-08-12T11:04:16.679Z,100544.66
2022-08-12T11:04:22.960Z,100551.84
2022-08-12T11:07:07.262Z,100540.77
2022-08-12T11:09:17.859Z,100547.70
2022-08-12T11:12:35.332Z,100540.94
2022-08-12T11:14:49.764Z,100533.48
2022-08-12T11:17:43.847Z,100526.51
2022-08-12T11:19:47.880Z,100530.23
2022-08-12T11:22:24.150Z,100521.48
2022-08-12T11:24:55.329Z,100531.95
2022-08-12T11:27:29.514Z,100527.67
2022-08-12T11:30:05.685Z,100513.53
2022-08-12T11:32:39.033Z,100525.89
2022-08-12T11:35:11.716Z,100507.00
2022-08-12T11:37:59.248Z,100500.62
2022-08-12T11:42:52.211Z,100511.28
2022-08-12T11:45:25.407Z,100495.52
2022-08-12T11:48:02.151Z,100493.88
2022-08-12T11:50:35.161Z,100492.70
2022-08-12T11:53:57.284Z,100493.86
2022-08-12T11:55:46.723Z,100488.47
2022-08-12T11:59:34.795Z,100487.14
2022-08-12T12:03:44.227Z,100485.52
2022-08-12T12:06:04.814Z,100471.95
2022-08-12T12:08:42.637Z,100474.08
2022-08-12T12:11:13.427Z,100461.44
2022-08-12T12:14:08.891Z,100459.37
2022-08-12T12:16:21.894Z,100458.92
2022-08-12T12:18:55.526Z,100450.11
2022-08-12T12:21:46.968Z,100448.52
2022-08-12T12:24:03.334Z,100449.73
2022-08-12T12:26:38.485Z,100445.01
2022-08-12T12:30:17.771Z,100447.62
2022-08-12T12:32:10.249Z,100443.23
2022-08-12T12:34:30.363Z,100451.15
2022-08-12T12:36:56.469Z,100435.91
2022-08-12T12:39:54.843Z,100440.39
2022-08-12T12:42:42.470Z,100439.66
2022-08-12T12:44:50.750Z,100434.91
2022-08-12T12:47:17.835Z,100430.79
2022-08-12T12:49:53.768Z,100432.23
2022-08-12T12:52:26.704Z,100414.66
2022-08-12T12:55:00.162Z,100417.44
2022-08-12T12:57:59.101Z,100423.45
2022-08-12T13:00:18.077Z,100430.27
2022-08-12T13:02:55.689Z,100422.30
2022-08-12T13:05:42.674Z,100419.37
2022-08-12T13:08:35.451Z,100421.67
2022-08-12T13:11:05.907Z,100416.45
2022-08-12T13:14:07.357Z,100430.05
2022-08-12T13:16:18.629Z,100420.84
2022-08-12T13:18:50.713Z,100412.56
2022-08-12T13:21:33.064Z,100404.47
2022-08-12T13:23:58.794Z,100410.58
2022-08-12T13:26:34.549Z,100410.44
2022-08-12T13:29:11.348Z,100405.19
2022-08-12T13:31:46.448Z,100404.28
2022-08-12T13:34:29.627Z,100406.54
2022-08-12T13:36:52.034Z,100400.72
2022-08-12T13:39:25.554Z,100397.27
2022-08-12T13:42:00.120Z,100392.73
2022-08-12T13:44:35.481Z,100387.64
2022-08-12T13:47:18.665Z,100381.06
2022-08-12T13:49:54.134Z,100383.84
2022-08-12T13:52:18.729Z,100375.11
2022-08-12T13:54:56.313Z,100374.07
2022-08-12T13:57:27.402Z,100382.63
2022-08-12T14:00:01.964Z,100373.28
2022-08-12T14:02:38.580Z,100373.48
2022-08-12T14:05:31.384Z,100376.08
2022-08-12T14:07:55.248Z,100373.40
2022-08-12T14:10:38.202Z,100375.73
2022-08-12T14:13:17.115Z,100370.45
2022-08-12T14:15:53.559Z,100372.37
2022-08-12T14:18:29.287Z,100365.97
2022-08-12T14:21:04.939Z,100357.87
2022-08-12T14:24:05.080Z,100362.44
2022-08-12T14:26:19.963Z,100355.05
2022-08-12T14:28:57.285Z,100357.78
2022-08-12T14:31:31.987Z,100356.33
2022-08-12T14:34:05.314Z,100351.00
2022-08-12T14:36:38.780Z,100350.77
2022-08-12T14:39:13.746Z,100347.06
2022-08-12T14:41:50.272Z,100340.70
2022-08-12T14:44:57.970Z,100347.98
2022-08-12T14:46:59.386Z,100348.64
2022-08-12T14:50:41.399Z,100354.00
2022-08-12T14:53:04.582Z,100348.91
2022-08-12T14:57:20.026Z,100351.70
2022-08-12T15:00:00.981Z,100355.34
2022-08-12T15:02:34.722Z,100354.75
2022-08-12T15:05:08.271Z,100354.75
2022-08-12T15:07:48.905Z,100365.22
2022-08-12T15:10:31.726Z,100355.95
2022-08-12T15:12:53.340Z,100361.53
2022-08-12T15:15:29.605Z,100363.95
2022-08-12T15:18:02.611Z,100363.69
2022-08-12T15:20:37.682Z,100359.11
2022-08-12T15:23:17.365Z,100366.41
2022-08-12T15:25:48.080Z,100369.00
2022-08-12T15:28:26.900Z,100370.03
2022-08-12T15:31:01.001Z,100372.59
2022-08-12T15:33:45.515Z,100371.30
2022-08-12T15:36:11.542Z,100384.45
2022-08-12T15:38:44.190Z,100376.20
2022-08-12T15:41:19.298Z,100383.04
2022-08-12T15:44:36.662Z,100381.32
2022-08-12T15:46:30.364Z,100368.66
2022-08-12T15:49:16.873Z,100372.66
2022-08-12T15:51:58.293Z,100371.32
2022-08-12T15:54:33.104Z,100367.22
2022-08-12T15:56:50.335Z,100369.63
2022-08-12T15:59:32.653Z,100371.16
2022-08-12T16:01:58.689Z,100381.14
2022-08-12T16:04:32.093Z,100382.32
2022-08-12T16:07:09.166Z,100384.31
2022-08-12T16:09:56.094Z,100389.27
2022-08-12T16:12:15.557Z,100383.64
2022-08-12T16:14:50.373Z,100387.09
2022-08-12T16:17:26.026Z,100382.77
2022-08-12T16:20:02.831Z,100387.58
2022-08-12T16:22:34.008Z,100376.83
2022-08-12T16:25:08.011Z,100383.26
2022-08-12T16:27:42.629Z,100387.39
2022-08-12T16:30:17.040Z,100375.64
2022-08-12T16:32:53.768Z,100379.38
2022-08-12T16:35:30.479Z,100381.39
2022-08-12T16:38:24.591Z,100388.85
2022-08-12T16:40:46.218Z,100389.89
2022-08-12T16:43:33.828Z,100391.91
2022-08-12T16:46:32.134Z,100390.75
2022-08-12T16:48:45.201Z,100386.05
2022-08-12T16:51:19.927Z,100389.56
2022-08-12T16:53:54.723Z,100388.88
2022-08-12T16:56:29.070Z,100398.45
2022-08-12T16:59:02.820Z,100392.55
2022-08-12T17:01:37.800Z,100389.19
2022-08-12T17:04:11.785Z,100397.24
2022-08-12T17:06:44.642Z,100387.24
2022-08-12T17:09:18.411Z,100388.92
2022-08-12T17:11:53.146Z,100401.82
2022-08-12T17:14:26.221Z,100402.64
2022-08-12T17:17:01.634Z,100398.40
2022-08-12T17:20:28.643Z,100404.75
2022-08-12T17:22:13.073Z,100408.22
2022-08-12T17:24:54.419Z,100401.24
2022-08-12T17:27:23.312Z,100402.21
2022-08-12T17:30:00.562Z,100402.86
2022-08-12T17:32:34.038Z,100408.19
2022-08-12T17:35:37.298Z,100398.05
2022-08-12T17:38:07.475Z,100402.20
2022-08-12T17:40:44.528Z,100394.94
2022-08-12T17:43:55.687Z,100395.43
2022-08-12T17:45:58.972Z,100402.58
2022-08-12T17:48:35.205Z,100406.72
2022-08-12T17:51:10.661Z,100400.24
2022-08-12T17:54:12.464Z,100396.52
2022-08-12T17:56:25.455Z,100404.02
2022-08-12T17:58:59.222Z,100408.01
2022-08-12T18:01:34.885Z,100408.64
2022-08-12T18:04:23.432Z,100411.77
2022-08-12T18:06:49.191Z,100413.55
2022-08-12T18:09:19.549Z,100405.09
2022-08-12T18:12:11.403Z,100401.88
2022-08-12T18:14:47.589Z,100407.88
2022-08-12T18:17:21.542Z,100403.81
2022-08-12T18:20:06.698Z,100410.14
2022-08-12T18:22:32.812Z,100412.30
2022-08-12T18:26:14.281Z,100399.33
2022-08-12T18:27:47.015Z,100417.81
2022-08-12T18:30:29.032Z,100405.25
2022-08-12T18:32:58.587Z,100416.16
2022-08-12T18:35:46.257Z,100409.62
2022-08-12T18:38:02.335Z,100411.92
2022-08-12T18:40:59.481Z,100427.96
2022-08-12T18:43:59.553Z,100417.69
2022-08-12T18:46:16.549Z,100415.48
2022-08-12T18:48:52.655Z,100417.74
2022-08-12T18:51:46.001Z,100422.87
2022-08-12T18:54:06.575Z,100410.22
2022-08-12T18:56:39.343Z,100410.50
2022-08-12T18:59:14.408Z,100411.94
2022-08-12T19:02:21.897Z,100416.77
2022-08-12T19:04:31.514Z,100417.63
2022-08-12T19:07:05.328Z,100413.69
2022-08-12T19:09:57.792Z,100419.34
2022-08-12T19:12:31.369Z,100414.59
2022-08-12T19:15:05.485Z,100412.05
2022-08-12T19:17:47.446Z,100410.08
2022-08-12T19:20:14.914Z,100412.37
2022-08-12T19:22:59.641Z,100419.16
2022-08-12T19:25:23.971Z,100414.50
2022-08-12T19:27:59.731Z,100415.23
2022-08-12T19:30:45.604Z,100415.12
2022-08-12T19:33:21.879Z,100420.08
2022-08-12T19:36:23.861Z,100416.81
2022-08-12T19:38:31.504Z,100421.49
2022-08-12T19:41:08.533Z,100425.45
2022-08-12T19:44:00.703Z,100428.54
2022-08-12T19:46:18.202Z,100433.34
2022-08-12T19:48:58.645Z,100426.31
2022-08-12T19:51:36.498Z,100437.58
2022-08-12T19:54:10.290Z,100439.39
2022-08-12T19:56:46.613Z,100433.36
2022-08-12T19:59:42.941Z,100429.99
2022-08-12T20:02:14.406Z,100428.28
2022-08-12T20:06:03.929Z,100428.72
2022-08-12T20:07:34.560Z,100429.69
2022-08-12T20:10:06.771Z,100419.83
2022-08-12T20:13:10.210Z,100421.83
2022-08-12T20:15:15.311Z,100432.22
2022-08-12T20:18:03.306Z,100434.08
2022-08-12T20:20:36.207Z,100432.22
2022-08-12T20:23:08.949Z,100428.86
2022-08-12T20:25:52.620Z,100434.35
2022-08-12T20:28:15.568Z,100430.81
2022-08-12T20:30:59.404Z,100429.14
2022-08-12T20:33:50.399Z,100427.31
2022-08-12T20:36:14.345Z,100432.80
2022-08-12T20:38:34.435Z,100431.27
2022-08-12T20:41:16.647Z,100428.45
2022-08-12T20:43:42.173Z,100434.91
2022-08-12T20:46:15.673Z,100429.81
2022-08-12T20:48:54.958Z,100431.78
2022-08-12T20:51:23.724Z,100431.91
2022-08-12T20:54:00.209Z,100436.14
2022-08-12T20:56:35.172Z,100432.50
2022-08-12T20:59:19.853Z,100427.14
2022-08-12T21:01:53.735Z,100430.37
2022-08-12T21:04:43.721Z,100436.03
2022-08-12T21:07:16.096Z,100437.56
2022-08-12T21:09:51.153Z,100438.55
2022-08-12T21:12:32.984Z,100438.67
2022-08-12T21:15:23.057Z,100440.08
2022-08-12T21:18:11.221Z,100445.41
2022-08-12T21:20:37.095Z,100439.76
2022-08-12T21:23:10.008Z,100437.52
2022-08-12T21:25:45.377Z,100440.86
2022-08-12T21:28:18.127Z,100439.44
2022-08-12T21:31:10.881Z,100443.37
2022-08-12T21:33:25.809Z,100442.81
2022-08-12T21:36:02.873Z,100439.67
2022-08-12T21:38:39.352Z,100444.28
2022-08-12T21:41:15.924Z,100445.54
2022-08-12T21:43:48.766Z,100453.82
2022-08-12T21:46:35.260Z,100446.23
2022-08-12T21:48:57.600Z,100451.96
2022-08-12T21:51:49.767Z,100452.39
2022-08-12T21:54:07.434Z,100445.75
2022-08-12T21:56:35.705Z,100451.09
2022-08-12T21:59:14.487Z,100452.91
2022-08-12T22:01:48.567Z,100454.45
2022-08-12T22:04:34.938Z,100454.75
2022-08-12T22:07:07.952Z,100459.42
2022-08-12T22:09:43.116Z,100448.11
2022-08-12T22:12:33.178Z,100448.50
2022-08-12T22:15:07.727Z,100448.62
2022-08-12T22:17:49.548Z,100459.73
2022-08-12T22:20:17.373Z,100457.24
2022-08-12T22:22:56.199Z,100455.03
2022-08-12T22:25:26.734Z,100459.10
2022-08-12T22:28:15.819Z,100460.19
2022-08-12T22:31:05.333Z,100455.25
2022-08-12T22:33:53.951Z,100461.84
2022-08-12T22:36:25.390Z,100464.06
2022-08-12T22:38:59.133Z,100463.08
2022-08-12T22:41:48.798Z,100462.59
2022-08-12T22:44:52.782Z,100468.31
2022-08-12T22:47:53.261Z,100472.47
2022-08-12T22:50:07.977Z,100474.56
2022-08-12T22:52:41.965Z,100474.35
2022-08-12T22:55:16.011Z,100478.63
2022-08-12T22:57:55.124Z,100481.45
2022-08-12T23:00:27.772Z,100479.28
2022-08-12T23:03:03.486Z,100473.48
2022-08-12T23:05:57.654Z,100478.60
2022-08-12T23:08:13.858Z,100485.16
2022-08-12T23:10:47.070Z,100479.37
2022-08-12T23:13:43.564Z,100485.06
2022-08-12T23:16:18.094Z,100480.95
2022-08-12T23:18:49.676Z,100481.34
2022-08-12T23:21:23.823Z,100482.57
2022-08-12T23:24:10.134Z,100485.36
2022-08-12T23:26:48.983Z,100480.47
2022-08-12T23:29:29.428Z,100484.48
2022-08-12T23:32:02.885Z,100484.01
2022-08-12T23:34:37.367Z,100487.19
2022-08-12T23:37:11.303Z,100477.86
2022-08-12T23:40:13.829Z,100490.71
2022-08-12T23:42:19.438Z,100487.42
2022-08-12T23:44:53.303Z,100487.69
2022-08-12T23:47:25.511Z,100488.91
2022-08-12T23:50:02.286Z,100491.69
2022-08-12T23:52:34.577Z,100496.39
2022-08-12T23:55:25.195Z,100499.06
2022-08-12T23:57:51.039Z,100490.58
